• Join FlightAware (Why Join?)
  • Login
  • US Flag 
10:32PM EDT


 

Airport Tracker/Info


-or-


 

Live Flight TrackerFlight Track Log ✈ DAL3672 ✈ 20-Apr-2013 ✈ KMHT - KDTW

Flight Track Log - Related Links

Times and Time Zones

All times are in EDT time to prevent confusion due to time zone crossing. See the DAL3672 flight status page for this flight to view local times or setup timezone preferences in your user account.

Time Position Orientation Groundspeed Altitude Reporting Facility
EDT Latitude Longitude Course Direction KTS MPH feet Rate Location/Type
12:35PM 42.9547 -71.4472 295° West 170 196 1,600  Level Boston Center
12:36PM 43.0028 -71.4833 331° Northwest 194 223 4,100 3,000 Climbing Boston Center
12:37PM 42.9356 -71.7700 279° West  Level FlightAware Approximate
12:37PM 43.0411 -71.5622 304° West 231 266 7,600  Level Boston Center
12:38PM 42.9480 -71.8820 279° West  Level FlightAware Approximate
12:38PM 43.0561 -71.6472 284° West 233 268 10,200  Level Boston Center
12:39PM 42.9500 -71.9952 270° West  Level FlightAware Approximate
12:39PM 43.0589 -71.7497 272° West 265 305 11,600  Level Boston Center
12:40PM 42.9501 -72.1085 270° West  Level FlightAware Approximate
12:40PM 43.0636 -71.8547 274° West 284 327 14,300  Level Boston Center
12:41PM 43.0683 -71.9597 274° West 284 327 15,900 1,500 Climbing Boston Center
12:42PM 43.0731 -72.0706 273° West 289 333 17,300 1,500 Climbing Boston Center
12:43PM 43.0775 -72.1786 273° West 289 333 19,000 1,200 Climbing Boston Center
12:44PM 43.0797 -72.2694 272° West 289 333 19,700 780 Climbing Boston Center
12:45PM 43.0922 -72.3689 280° West 289 333 20,600 1,020 Climbing Boston Center
12:46PM 43.0964 -72.5083 272° West 295 339 21,800 1,200 Climbing Boston Center
12:47PM 43.0922 -72.6392 268° West 306 352 23,000 840 Climbing Boston Center
12:48PM 43.0961 -72.7614 273° West 316 364 23,500 480 Climbing Boston Center
12:49PM 43.1019 -72.8836 274° West 321 369 24,000 480 Climbing Boston Center
12:50PM 43.1075 -73.0003 274° West 328 377 24,500 480 Climbing Boston Center
12:51PM 43.1131 -73.1256 274° West 334 384 25,000 480 Climbing Boston Center
12:52PM 43.1144 -73.2506 271° West 334 384 25,500 480 Climbing Boston Center
12:53PM 43.1156 -73.3872 271° West 328 377 26,000 420 Climbing Boston Center
12:54PM 43.1189 -73.4839 273° West 328 377 26,400 480 Climbing Boston Center
12:55PM 43.1217 -73.6292 272° West 328 377 27,000 540 Climbing Boston Center
12:56PM 43.1244 -73.7486 272° West 323 372 27,500 480 Climbing Boston Center
12:57PM 43.1272 -73.8681 272° West 323 372 28,000 480 Climbing Boston Center
12:58PM 43.1297 -73.9819 272° West 318 366 28,500 480 Climbing Boston Center
12:59PM 43.1322 -74.0989 272° West 313 360 29,000 420 Climbing Boston Center
01:00PM 43.1369 -74.2183 273° West 313 360 29,500 420 Climbing Boston Center
01:01PM 43.1408 -74.3608 272° West 308 354 30,000 240 Climbing Boston Center
01:02PM 43.1408 -74.4775 270° West 308 354 30,000  Level Boston Center
01:03PM 43.1425 -74.6083 271° West 318 366 30,000  Level Boston Center
01:04PM 43.1464 -74.7367 272° West 336 387 30,000  Level Boston Center
01:05PM 43.1478 -74.8675 271° West 341 392 30,000  Level Boston Center
01:06PM 43.1503 -74.9475 272° West 346 398 30,000  Level Boston Center
01:07PM 43.1506 -75.1211 270° West 346 398 30,000  Level Boston Center
01:08PM 43.1533 -75.2550 272° West 346 398 30,000  Level Boston Center
01:09PM 43.1564 -75.3889 272° West 346 398 30,000  Level Boston Center
01:10PM 43.1569 -75.5256 270° West 351 404 30,000  Level Boston Center
01:11PM 43.1594 -75.6594 272° West 351 404 30,000  Level Boston Center
01:12PM 43.1589 -75.8247 270° West 351 404 30,000  Level Boston Center
01:14PM 43.1611 -76.0972 271° West 361 415 30,000 -60 Level Cleveland Center
01:15PM 43.1578 -76.2311 268° West 361 415 29,900  Descending Cleveland Center
01:16PM 43.1461 -76.3658 263° West 367 422 30,000  Climbing Cleveland Center
01:17PM 43.1364 -76.4972 264° West 362 417 30,000 -60 Level Cleveland Center
01:18PM 43.1242 -76.6292 263° West 357 411 29,900  Descending Cleveland Center
01:19PM 43.1100 -76.7636 262° West 357 411 30,000  Climbing Cleveland Center
01:20PM 43.1017 -76.8950 265° West 357 411 30,000  Level Cleveland Center
01:21PM 43.0892 -77.0294 263° West 357 411 30,000  Level Cleveland Center
01:22PM 43.0747 -77.1667 262° West 357 411 30,000  Level Cleveland Center
01:23PM 43.0619 -77.3011 263° West 357 411 30,000  Level Cleveland Center
01:24PM 43.0511 -77.4381 264° West 357 411 30,000  Level Cleveland Center
01:25PM 43.0361 -77.5781 262° West 367 422 30,000  Level Cleveland Center
01:26PM 43.0247 -77.7119 263° West 367 422 30,000  Level Cleveland Center
01:27PM 43.0094 -77.8489 261° West 372 428 30,000  Level Cleveland Center
01:28PM 42.9978 -77.9800 263° West 367 422 30,000  Level Cleveland Center
01:29PM 42.9861 -78.1056 263° West 351 404 30,000  Level Cleveland Center
01:30PM 42.9719 -78.2308 261° West 345 397 30,000  Level Cleveland Center
01:31PM 42.9597 -78.3561 262° West 340 391 30,000  Level Cleveland Center
01:32PM 42.9475 -78.4842 263° West 340 391 30,000  Level Cleveland Center
01:33PM 42.9333 -78.6125 261° West 340 391 30,000  Level Cleveland Center
01:34PM 42.9186 -78.7406 261° West 345 397 30,000  Level Cleveland Center
01:35PM 42.8997 -78.8656 258° West 345 397 30,000  Level Cleveland Center
01:36PM 42.8828 -78.9936 260° West 340 391 30,000  Level Cleveland Center
01:37PM 42.8614 -79.1189 257° West 340 391 30,000  Level Cleveland Center
01:38PM 42.8422 -79.2467 258° West 340 391 30,000  Level Cleveland Center
01:39PM 42.8269 -79.3772 261° West 346 398 30,000  Level Cleveland Center
01:40PM 42.8053 -79.5106 258° West 353 406 30,000  Level Cleveland Center
01:41PM 42.7858 -79.6469 259° West 358 412 30,000 -420 Level Cleveland Center
01:42PM 42.7639 -79.7886 258° West 371 427 29,200 -960 Descending Cleveland Center
01:43PM 42.7503 -79.9328 263° West 387 445 28,100 -600 Descending Cleveland Center
01:44PM 42.7406 -80.0800 265° West 393 452 28,000 -60 Descending Cleveland Center
01:45PM 42.7347 -80.2214 267° West 386 444 28,000  Level Cleveland Center
01:46PM 42.7308 -80.3600 268° West 375 432 28,000  Level Cleveland Center
01:47PM 42.7247 -80.4872 266° West 356 410 28,000  Level Cleveland Center
01:48PM 42.7186 -80.6172 266° West 347 399 28,000 -420 Level Cleveland Center
01:49PM 42.7122 -80.7469 266° West 355 409 27,200 -900 Descending Cleveland Center
01:50PM 42.7078 -80.8714 267° West 348 400 26,200 -900 Descending Cleveland Center
01:51PM 42.6972 -80.9786 262° West 335 386 25,400 -900 Descending Cleveland Center
01:52PM 42.6819 -81.1000 260° West 322 371 24,400 -720 Descending Cleveland Center
01:53PM 42.6689 -81.2186 262° West 322 371 24,000 -240 Descending Cleveland Center
01:54PM 42.6536 -81.3483 261° West 341 392 24,000  Level Cleveland Center
01:55PM 42.6403 -81.4750 262° West 353 406 24,000  Level Cleveland Center
01:56PM 42.6244 -81.6017 260° West 347 399 24,000  Level Cleveland Center
01:57PM 42.6086 -81.7286 260° West 341 392 24,000 -600 Level Cleveland Center
01:58PM 42.5928 -81.8494 260° West 341 392 22,900 -1,500 Descending Cleveland Center
01:59PM 42.5789 -81.9733 261° West 336 387 21,000 -2,100 Descending Cleveland Center
02:00PM 42.5606 -82.1081 260° West 336 387 18,700 -1,980 Descending Cleveland Center
02:01PM 42.5464 -82.2347 261° West 336 387 17,100 -1,680 Descending Cleveland Center
02:02PM 42.5392 -82.3022 262° West 333 383 16,100 -2,040 Descending Cleveland Center
02:02PM 42.5300 -82.3525 256° West 331 381 15,100 -2,100 Descending Cleveland Center
02:03PM 42.5175 -82.4761 262° West 312 359 13,100 -1,620 Descending Cleveland Center
02:04PM 42.4972 -82.5769 255° West 316 364 12,100 -1,080 Descending Cleveland Center
02:05PM 42.4578 -82.6856 244° Southwest 311 358 11,100 -1,080 Descending Cleveland Center
02:06PM 42.4267 -82.7744 245° Southwest 245 282 10,000 -1,080 Descending Cleveland Center
02:07PM 42.4167 -82.8642 261° West 250 288 9,000 -1,200 Descending Cleveland Center
02:08PM 42.4169 -82.9597 270° West 243 280 7,600 -1,680 Descending Cleveland Center
02:09PM 42.4150 -83.0497 268° West 244 281 5,600 -1,260 Descending Cleveland Center
02:10PM 42.4194 -83.1286 274° West 234 269 5,100 -300 Descending Cleveland Center
02:11PM 42.4058 -83.1872 253° West 194 223 5,000 -540 Descending Cleveland Center
02:12PM 42.3525 -83.2356 214° Southwest 182 209 3,900 -960 Descending Cleveland Center
02:13PM 42.3164 -83.2622 209° Southwest 180 207 3,000 -1,140 Descending Cleveland Center